South Waverly, Pennsylvania
Current Conditions -  °F | °C
As of 6:53 AM on Thursday 18 Dec 2014 (Local Time) from KBGM Reporting Station
Overcast Overcast  
Wind Chill: 16°   Ceiling: 1600
Heat Index: 28°   Visibility: 10mi
Dew Point: 22°   Wind: 16mph
Humidity: 78%   Direction: 290°WNW
Pressure: 29.94"   Gusts: 28mph
Location:  41.9771°N, 76.4144°W
Report Text: KBGM 181153Z 29014G24KT 10SM OVC016 M02/M06 A2994 RMK AO2 SLP156 60000 70008 T10221056 11011 21022 53009
Loading
Personal Weather Stations






























Interactive Weather Map New forecast layout! Learn more

10-Day Weather Forecast

Advertisements
Track Severe Weather on mobile